createdAt,value
2022-11-28T00:00:45.670Z,44.78
2022-11-28T00:06:40.308Z,46.92
2022-11-28T00:12:34.120Z,46.28
2022-11-28T00:18:27.018Z,46.25
2022-11-28T00:24:19.723Z,49.53
2022-11-28T00:30:11.931Z,50.15
2022-11-28T00:36:05.737Z,47.42
2022-11-28T00:41:57.330Z,52.73
2022-11-28T00:47:50.022Z,47.60
2022-11-28T00:53:43.919Z,51.53
2022-11-28T00:59:36.668Z,49.58
2022-11-28T01:05:28.810Z,51.08
2022-11-28T01:11:21.348Z,48.22
2022-11-28T01:17:13.623Z,49.55
2022-11-28T01:23:05.941Z,50.03
2022-11-28T01:29:00.232Z,48.20
2022-11-28T01:34:53.029Z,50.10
2022-11-28T01:40:46.870Z,51.03
2022-11-28T01:46:38.891Z,51.85
2022-11-28T01:52:31.159Z,53.20
2022-11-28T01:58:24.529Z,52.65
2022-11-28T02:04:16.900Z,54.53
2022-11-28T02:10:12.395Z,54.17
2022-11-28T02:16:26.463Z,53.25
2022-11-28T02:22:34.408Z,53.92
2022-11-28T02:28:49.038Z,50.50
2022-11-28T02:34:47.281Z,59.33
2022-11-28T02:40:57.579Z,59.53
2022-11-28T02:46:55.491Z,57.13
2022-11-28T02:52:55.911Z,51.00
2022-11-28T02:58:48.068Z,56.80
2022-11-28T03:04:52.119Z,56.15
2022-11-28T03:11:10.699Z,57.33
2022-11-28T03:17:21.979Z,60.58
2022-11-28T03:23:16.516Z,58.67
2022-11-28T03:29:37.267Z,62.67
2022-11-28T03:35:34.381Z,64.90
2022-11-28T03:41:39.129Z,62.33
2022-11-28T03:47:37.909Z,67.38
2022-11-28T03:53:42.839Z,62.05
2022-11-28T03:59:49.298Z,62.55
2022-11-28T04:06:06.119Z,63.90
2022-11-28T04:12:05.049Z,58.47
2022-11-28T04:18:11.094Z,64.22
2022-11-28T04:24:08.540Z,56.33
2022-11-28T04:30:03.621Z,63.08
2022-11-28T04:35:57.219Z,57.78
2022-11-28T04:41:54.339Z,61.63
2022-11-28T04:47:46.259Z,62.95
2022-11-28T04:54:05.019Z,61.47
2022-11-28T04:59:57.850Z,51.10
2022-11-28T05:05:51.961Z,47.40
2022-11-28T05:11:44.184Z,48.03
2022-11-28T05:17:41.698Z,47.55
2022-11-28T05:23:34.085Z,44.65
2022-11-28T05:29:26.190Z,46.85
2022-11-28T05:35:18.563Z,47.38
2022-11-28T05:41:22.421Z,49.70
2022-11-28T05:47:16.096Z,48.47
2022-11-28T05:53:09.306Z,48.88
2022-11-28T05:59:01.501Z,52.38
2022-11-28T06:04:53.687Z,48.85
2022-11-28T06:10:46.507Z,53.22
2022-11-28T06:16:38.590Z,49.80
2022-11-28T06:22:31.308Z,52.47
2022-11-28T06:28:23.539Z,49.45
2022-11-28T06:34:15.577Z,52.67
2022-11-28T06:40:08.230Z,46.95
2022-11-28T06:46:00.980Z,46.47
2022-11-28T06:51:53.909Z,56.53
2022-11-28T06:57:46.780Z,55.23
2022-11-28T07:03:45.024Z,52.63
2022-11-28T07:09:38.308Z,48.42
2022-11-28T07:15:31.290Z,53.77
2022-11-28T07:21:24.807Z,47.30
2022-11-28T07:27:18.221Z,53.17
2022-11-28T07:33:11.745Z,55.55
2022-11-28T07:39:06.063Z,57.17
2022-11-28T07:44:58.685Z,59.40
2022-11-28T07:50:50.667Z,58.10
2022-11-28T07:57:11.844Z,63.20
2022-11-28T08:02:54.700Z,57.50
2022-11-28T08:08:47.543Z,56.78
2022-11-28T08:14:39.647Z,48.83
2022-11-28T08:20:31.705Z,51.47
2022-11-28T08:26:29.092Z,47.90
2022-11-28T08:32:23.139Z,52.97
2022-11-28T08:38:16.081Z,48.13
2022-11-28T08:44:09.185Z,45.45
2022-11-28T08:50:02.303Z,50.90
2022-11-28T08:55:54.951Z,51.65
2022-11-28T09:01:46.989Z,49.58
2022-11-28T09:07:39.715Z,49.60
2022-11-28T09:13:32.223Z,39.13
2022-11-28T09:19:24.784Z,36.27
2022-11-28T09:25:17.268Z,35.58
2022-11-28T09:31:13.020Z,40.78
2022-11-28T09:37:05.250Z,34.42
2022-11-28T09:43:06.383Z,38.92
2022-11-28T09:49:03.546Z,34.90
2022-11-28T09:55:28.492Z,37.53
2022-11-28T10:01:43.330Z,37.88
2022-11-28T10:08:04.799Z,35.83
2022-11-28T10:14:29.229Z,34.20
2022-11-28T10:20:25.932Z,37.35
2022-11-28T10:26:17.913Z,33.30
2022-11-28T10:32:16.683Z,32.38
2022-11-28T10:38:14.215Z,31.75
2022-11-28T10:44:33.803Z,31.63
2022-11-28T10:50:44.301Z,30.23
2022-11-28T10:57:03.153Z,28.95
2022-11-28T11:02:57.125Z,30.33
2022-11-28T11:08:49.583Z,29.80
2022-11-28T11:14:43.884Z,30.35
2022-11-28T11:20:39.403Z,30.25
2022-11-28T11:26:42.481Z,25.45
2022-11-28T11:32:35.604Z,21.00
2022-11-28T11:38:37.922Z,22.80
2022-11-28T11:44:34.931Z,21.35
2022-11-28T11:50:33.371Z,20.40
2022-11-28T11:56:26.101Z,22.17
2022-11-28T12:02:33.102Z,21.40
2022-11-28T12:08:34.162Z,21.65
2022-11-28T12:14:33.128Z,22.30
2022-11-28T12:20:50.282Z,21.70
2022-11-28T12:26:47.909Z,22.17
2022-11-28T12:32:59.586Z,21.70
2022-11-28T12:39:05.066Z,21.70
2022-11-28T12:45:09.383Z,21.80
2022-11-28T12:51:23.197Z,18.55
2022-11-28T12:57:34.701Z,22.20
2022-11-28T13:04:01.745Z,18.70
2022-11-28T13:10:45.544Z,19.38
2022-11-28T13:16:55.943Z,21.67
2022-11-28T13:22:57.823Z,22.83
2022-11-28T13:28:57.785Z,21.70
2022-11-28T13:34:51.223Z,19.75
2022-11-28T13:40:49.634Z,21.23
2022-11-28T13:46:44.218Z,21.00
2022-11-28T13:52:43.226Z,17.60
2022-11-28T13:58:49.542Z,18.30
2022-11-28T14:04:44.637Z,18.42
2022-11-28T14:10:50.327Z,19.38
2022-11-28T14:17:12.183Z,19.67
2022-11-28T14:23:20.141Z,18.67
2022-11-28T14:29:35.367Z,20.23
2022-11-28T14:35:52.710Z,20.85
2022-11-28T14:42:06.994Z,21.23
2022-11-28T14:48:19.835Z,23.27
2022-11-28T14:54:26.100Z,23.25
2022-11-28T15:00:38.804Z,22.58
2022-11-28T15:06:38.311Z,23.20
2022-11-28T15:12:44.363Z,21.02
2022-11-28T15:18:41.217Z,22.20
2022-11-28T15:24:36.485Z,26.23
2022-11-28T15:30:28.778Z,26.58
2022-11-28T15:36:28.700Z,25.00
2022-11-28T15:42:24.611Z,25.20
2022-11-28T15:48:27.745Z,28.05
2022-11-28T15:54:34.771Z,26.47
2022-11-28T16:00:27.096Z,27.95
2022-11-28T16:06:22.774Z,31.10
2022-11-28T16:12:15.441Z,33.50
2022-11-28T16:18:18.203Z,34.13
2022-11-28T16:24:26.209Z,31.67
2022-11-28T16:30:27.323Z,38.38
2022-11-28T16:36:25.060Z,32.72
2022-11-28T16:42:20.562Z,27.15
2022-11-28T16:48:19.681Z,39.03
2022-11-28T16:54:23.026Z,34.17
2022-11-28T17:00:15.765Z,32.65
2022-11-28T17:06:40.921Z,28.37
2022-11-28T17:12:37.480Z,27.77
2022-11-28T17:18:30.262Z,29.70
2022-11-28T17:24:27.683Z,28.17
2022-11-28T17:30:21.623Z,26.15
2022-11-28T17:36:14.169Z,28.65
2022-11-28T17:42:06.741Z,24.17
2022-11-28T17:47:59.955Z,19.92
2022-11-28T17:53:53.404Z,22.05
2022-11-28T17:59:46.219Z,26.50
2022-11-28T18:05:43.583Z,25.58
2022-11-28T18:11:38.809Z,25.83
2022-11-28T18:17:31.522Z,26.45
2022-11-28T18:23:26.159Z,28.52
2022-11-28T18:29:18.160Z,25.10
2022-11-28T18:35:10.967Z,18.88
2022-11-28T18:41:15.701Z,27.33
2022-11-28T18:47:11.068Z,25.00
2022-11-28T18:53:04.532Z,27.75
2022-11-28T18:58:58.547Z,25.13
2022-11-28T19:04:51.877Z,23.85
2022-11-28T19:10:44.982Z,25.75
2022-11-28T19:16:38.579Z,27.20
2022-11-28T19:22:32.186Z,27.65
2022-11-28T19:28:24.862Z,28.10
2022-11-28T19:34:19.256Z,28.88
2022-11-28T19:40:12.122Z,25.85
2022-11-28T19:46:05.718Z,29.80
2022-11-28T19:51:59.906Z,29.70
2022-11-28T19:57:53.084Z,28.10
2022-11-28T20:03:48.031Z,30.02
2022-11-28T20:09:40.734Z,32.95
2022-11-28T20:15:37.529Z,34.50
2022-11-28T20:21:30.403Z,29.08
2022-11-28T20:27:22.574Z,33.07
2022-11-28T20:33:14.826Z,30.77
2022-11-28T20:39:10.499Z,30.00
2022-11-28T20:45:03.785Z,32.75
2022-11-28T20:50:56.685Z,32.97
2022-11-28T21:03:01.846Z,33.10
2022-11-28T21:08:53.724Z,35.42
2022-11-28T21:14:46.221Z,33.17
2022-11-28T21:20:45.605Z,33.67
2022-11-28T21:26:42.451Z,37.08
2022-11-28T21:32:36.523Z,38.40
2022-11-28T21:38:29.882Z,35.67
2022-11-28T21:50:15.068Z,34.63
2022-11-28T21:56:10.242Z,37.67
2022-11-28T22:02:07.180Z,38.78
2022-11-28T22:08:03.302Z,39.17
2022-11-28T22:13:56.148Z,38.33
2022-11-28T22:19:48.826Z,45.03
2022-11-28T22:25:49.648Z,36.28
2022-11-28T22:31:42.269Z,39.75
2022-11-28T22:37:34.687Z,41.93
2022-11-28T22:43:27.128Z,35.30
2022-11-28T22:49:20.141Z,44.13
2022-11-28T22:55:13.410Z,45.60
2022-11-28T23:01:11.448Z,44.22
2022-11-28T23:07:03.948Z,45.67
2022-11-28T23:12:56.950Z,43.75
2022-11-28T23:18:51.903Z,43.35
2022-11-28T23:24:45.187Z,39.38
2022-11-28T23:30:37.900Z,42.13
2022-11-28T23:36:36.987Z,39.85
2022-11-28T23:42:33.344Z,44.10
2022-11-28T23:48:26.784Z,42.95
2022-11-28T23:54:19.101Z,42.13
